Bowen, Australia
Current Conditions -  °F | °C
As of 7:00 AM on Wednesday 22 Oct 2014 (Local Time) from YBPN Reporting Station
Overcast Overcast  
Wind Chill: 70°   Ceiling: 5700
Heat Index: 70°   Visibility: 6mi
Dew Point: 61°   Wind: 10mph
Humidity: 73%   Direction: 160°SSE
Pressure: 30.15"   Gusts: NA
Location:  20.01°S, 148.25°E
Report Text: YBPN 212100Z AUTO 16009KT 9999 // OVC057 21/16 Q1021
Loading
Personal Weather Stations






























Interactive Weather Map
Tropical Storm Tracking
New forecast layout! Learn more

10-Day Weather Forecast

Advertisements
Track Severe Weather on mobile